createdAt,value
2022-09-09T00:02:10.075Z,10.30
2022-09-09T00:04:39.737Z,10.30
2022-09-09T00:07:27.570Z,10.40
2022-09-09T00:10:40.667Z,11.60
2022-09-09T00:13:30.783Z,7.70
2022-09-09T00:16:04.930Z,8.70
2022-09-09T00:19:00.565Z,10.40
2022-09-09T00:21:40.401Z,11.10
2022-09-09T00:24:49.974Z,10.20
2022-09-09T00:27:33.367Z,10.00
2022-09-09T00:30:29.970Z,10.40
2022-09-09T00:33:13.701Z,9.70
2022-09-09T00:36:01.820Z,9.70
2022-09-09T00:38:39.592Z,11.70
2022-09-09T00:41:44.391Z,9.70
2022-09-09T00:45:14.839Z,9.10
2022-09-09T00:47:52.910Z,9.40
2022-09-09T00:50:54.105Z,9.20
2022-09-09T00:54:00.836Z,8.60
2022-09-09T00:56:43.472Z,12.10
2022-09-09T00:59:11.274Z,9.20
2022-09-09T01:01:40.846Z,10.00
2022-09-09T01:04:18.350Z,12.80
2022-09-09T01:06:53.423Z,8.20
2022-09-09T01:09:39.742Z,11.70
2022-09-09T01:12:44.839Z,9.50
2022-09-09T01:15:23.083Z,8.70
2022-09-09T01:18:02.450Z,7.90
2022-09-09T01:20:42.538Z,7.30
2022-09-09T01:23:16.292Z,11.10
2022-09-09T01:26:16.989Z,9.20
2022-09-09T01:28:48.648Z,7.80
2022-09-09T01:32:03.820Z,9.10
2022-09-09T01:34:37.793Z,9.10
2022-09-09T01:37:10.749Z,8.00
2022-09-09T01:39:40.940Z,12.70
2022-09-09T01:42:11.313Z,9.60
2022-09-09T01:44:39.571Z,10.70
2022-09-09T01:47:08.060Z,8.70
2022-09-09T01:49:35.790Z,8.60
2022-09-09T01:52:03.954Z,8.00
2022-09-09T01:54:33.451Z,9.40
2022-09-09T01:57:23.415Z,10.10
2022-09-09T02:00:14.671Z,10.20
2022-09-09T02:03:10.229Z,10.60
2022-09-09T02:05:42.753Z,8.50
2022-09-09T02:11:01.672Z,8.60
2022-09-09T02:13:30.291Z,9.90
2022-09-09T02:16:40.941Z,9.90
2022-09-09T02:19:26.830Z,8.70
2022-09-09T02:21:57.351Z,8.30
2022-09-09T02:24:26.129Z,8.30
2022-09-09T02:26:55.522Z,7.80
2022-09-09T02:29:38.767Z,7.50
2022-09-09T02:32:13.383Z,6.00
2022-09-09T02:34:45.625Z,5.80
2022-09-09T02:37:14.671Z,6.10
2022-09-09T02:39:42.846Z,6.70
2022-09-09T02:42:10.852Z,5.80
2022-09-09T02:44:38.605Z,6.60
2022-09-09T02:47:35.081Z,7.20
2022-09-09T02:50:36.860Z,7.60
2022-09-09T02:53:22.696Z,6.90
2022-09-09T02:56:14.841Z,9.50
2022-09-09T02:58:43.145Z,7.30
2022-09-09T03:01:11.312Z,9.50
2022-09-09T03:03:39.454Z,7.70
2022-09-09T03:06:07.258Z,9.10
2022-09-09T03:08:35.212Z,7.30
2022-09-09T03:11:03.476Z,9.10
2022-09-09T03:13:31.368Z,7.30
2022-09-09T03:15:59.923Z,10.90
2022-09-09T03:18:29.216Z,8.80
2022-09-09T03:20:57.164Z,9.60
2022-09-09T03:23:25.334Z,8.90
2022-09-09T03:25:53.392Z,11.20
2022-09-09T03:31:31.265Z,13.00
2022-09-09T03:33:59.345Z,10.20
2022-09-09T03:36:27.807Z,9.30
2022-09-09T03:38:56.737Z,10.60
2022-09-09T03:41:25.246Z,10.80
2022-09-09T03:43:53.199Z,8.20
2022-09-09T03:46:23.565Z,9.90
2022-09-09T03:48:53.333Z,7.90
2022-09-09T03:51:21.154Z,9.90
2022-09-09T03:53:49.031Z,9.30
2022-09-09T03:56:17.305Z,9.60
2022-09-09T03:58:45.227Z,9.80
2022-09-09T04:01:15.248Z,9.00
2022-09-09T04:03:43.621Z,10.00
2022-09-09T04:06:14.555Z,9.90
2022-09-09T04:08:42.892Z,16.50
2022-09-09T04:11:10.863Z,7.90
2022-09-09T04:13:40.314Z,8.40
2022-09-09T04:16:11.919Z,12.40
2022-09-09T04:18:40.636Z,10.00
2022-09-09T04:21:10.139Z,10.70
2022-09-09T04:23:37.943Z,10.60
2022-09-09T04:26:06.978Z,9.00
2022-09-09T04:28:37.070Z,10.50
2022-09-09T04:31:10.857Z,10.10
2022-09-09T04:33:40.744Z,9.30
2022-09-09T04:36:09.756Z,9.60
2022-09-09T04:38:37.717Z,12.30
2022-09-09T04:41:06.432Z,8.80
2022-09-09T04:43:35.503Z,9.50
2022-09-09T04:46:03.372Z,10.70
2022-09-09T04:48:32.786Z,11.60
2022-09-09T04:51:07.124Z,12.10
2022-09-09T04:53:38.397Z,11.50
2022-09-09T04:56:08.446Z,9.10
2022-09-09T04:58:36.962Z,11.30
2022-09-09T05:01:19.387Z,15.90
2022-09-09T05:06:21.064Z,11.80
2022-09-09T05:08:50.437Z,13.40
2022-09-09T05:11:31.017Z,10.70
2022-09-09T05:13:58.815Z,22.50
2022-09-09T05:16:27.651Z,35.80
2022-09-09T05:19:04.397Z,46.10
2022-09-09T05:21:32.749Z,32.30
2022-09-09T05:24:01.741Z,19.20
2022-09-09T05:26:33.587Z,15.30
2022-09-09T05:29:11.634Z,13.50
2022-09-09T05:31:43.101Z,14.50
2022-09-09T05:34:13.657Z,11.00
2022-09-09T05:36:41.747Z,13.10
2022-09-09T05:39:17.473Z,12.40
2022-09-09T05:41:45.456Z,16.90
2022-09-09T05:44:13.780Z,17.00
2022-09-09T05:46:41.727Z,17.30
2022-09-09T05:50:02.856Z,15.50
2022-09-09T06:02:08.512Z,11.20
2022-09-09T06:05:29.402Z,10.80
2022-09-09T06:08:49.874Z,10.80
2022-09-09T06:11:34.812Z,9.10
2022-09-09T06:14:06.419Z,9.00
2022-09-09T06:16:39.692Z,12.90
2022-09-09T06:19:24.015Z,9.00
2022-09-09T06:21:58.359Z,12.90
2022-09-09T06:24:35.368Z,10.40
2022-09-09T06:27:39.860Z,9.70
2022-09-09T06:35:05.321Z,13.90
2022-09-09T06:37:34.100Z,10.40
2022-09-09T06:45:44.405Z,11.20
2022-09-09T07:10:11.103Z,8.60
2022-09-09T08:37:51.618Z,6.60
2022-09-09T08:40:31.308Z,7.00
2022-09-09T08:43:03.937Z,8.90
2022-09-09T08:46:25.934Z,11.50
2022-09-09T08:49:07.235Z,10.00
2022-09-09T08:51:35.111Z,8.40
2022-09-09T08:54:04.419Z,9.80
2022-09-09T08:56:33.747Z,5.50
2022-09-09T08:59:04.398Z,7.80
2022-09-09T09:01:55.597Z,8.30
2022-09-09T09:04:53.681Z,6.70
2022-09-09T09:07:56.994Z,7.90
2022-09-09T09:10:55.091Z,7.10
2022-09-09T09:14:15.025Z,5.00
2022-09-09T09:17:16.340Z,5.60
2022-09-09T09:19:45.441Z,7.80
2022-09-09T09:22:59.691Z,4.20
2022-09-09T09:25:39.618Z,11.40
2022-09-09T09:28:19.469Z,6.40
2022-09-09T09:31:02.733Z,8.90
2022-09-09T09:33:54.214Z,4.60
2022-09-09T09:36:35.007Z,6.70
2022-09-09T09:45:36.356Z,5.60
2022-09-09T09:48:07.959Z,6.30
2022-09-09T09:53:06.204Z,6.00
2022-09-09T09:55:36.380Z,6.00
2022-09-09T09:58:06.905Z,4.30
2022-09-09T10:00:37.633Z,6.10
2022-09-09T10:03:38.722Z,6.70
2022-09-09T10:06:10.723Z,5.00
2022-09-09T10:12:14.960Z,5.40
2022-09-09T10:15:47.394Z,4.10
2022-09-09T10:19:14.332Z,4.10
2022-09-09T10:22:21.818Z,3.70
2022-09-09T10:24:56.797Z,4.20
2022-09-09T10:27:57.019Z,5.00
2022-09-09T10:30:54.308Z,3.50
2022-09-09T10:33:57.526Z,7.50
2022-09-09T10:36:30.859Z,8.90
2022-09-09T10:39:07.864Z,48.80
2022-09-09T10:42:07.127Z,4.10
2022-09-09T10:45:08.763Z,3.20
2022-09-09T10:48:10.529Z,5.00
2022-09-09T10:51:04.620Z,6.20
2022-09-09T10:54:00.943Z,3.70
2022-09-09T10:56:30.376Z,3.70
2022-09-09T10:59:24.741Z,3.10
2022-09-09T11:02:03.585Z,4.10
2022-09-09T11:05:04.301Z,2.80
2022-09-09T11:07:44.672Z,3.50
2022-09-09T11:11:05.665Z,4.00
2022-09-09T11:13:43.899Z,3.90
2022-09-09T11:16:43.297Z,3.30
2022-09-09T11:19:28.498Z,3.40
2022-09-09T11:21:59.239Z,5.20
2022-09-09T11:25:08.313Z,5.00
2022-09-09T11:27:56.692Z,4.70
2022-09-09T11:30:56.722Z,8.40
2022-09-09T11:33:53.031Z,6.00
2022-09-09T11:37:07.724Z,6.20
2022-09-09T11:40:01.469Z,3.10
2022-09-09T11:42:29.609Z,4.20
2022-09-09T11:44:58.550Z,3.40
2022-09-09T11:47:31.466Z,5.90
2022-09-09T11:50:32.398Z,4.40
2022-09-09T11:53:15.390Z,3.40
2022-09-09T11:55:43.282Z,3.30
2022-09-09T11:58:12.280Z,2.40
2022-09-09T12:00:49.123Z,3.30
2022-09-09T12:03:47.170Z,3.80
2022-09-09T12:06:33.101Z,5.40
2022-09-09T12:09:45.669Z,3.00
2022-09-09T12:12:13.663Z,3.70
2022-09-09T12:15:04.754Z,3.90
2022-09-09T12:18:02.865Z,3.00
2022-09-09T12:20:32.990Z,3.40
2022-09-09T12:23:38.898Z,2.70
2022-09-09T12:26:12.061Z,4.50
2022-09-09T12:29:48.170Z,2.80
2022-09-09T12:32:24.521Z,3.40
2022-09-09T12:35:04.648Z,3.50
2022-09-09T12:37:39.781Z,6.70
2022-09-09T12:40:40.229Z,5.30
2022-09-09T12:43:22.284Z,4.00
2022-09-09T12:45:58.908Z,2.70
2022-09-09T12:53:34.151Z,3.20
2022-09-09T12:56:41.373Z,4.60
2022-09-09T12:59:40.634Z,6.60
2022-09-09T13:02:23.010Z,4.20
2022-09-09T13:04:51.752Z,2.60
2022-09-09T13:07:22.716Z,3.50
2022-09-09T13:09:50.770Z,2.40
2022-09-09T13:12:23.893Z,5.50
2022-09-09T13:14:57.408Z,2.30
2022-09-09T13:17:30.163Z,2.30
2022-09-09T13:19:58.446Z,2.50
2022-09-09T13:22:37.463Z,2.40
2022-09-09T13:25:10.116Z,3.50
2022-09-09T13:27:42.024Z,4.00
2022-09-09T13:30:33.494Z,2.90
2022-09-09T13:33:24.328Z,2.40
2022-09-09T13:35:59.956Z,1.80
2022-09-09T13:38:30.496Z,4.50
2022-09-09T13:41:14.714Z,3.40
2022-09-09T13:43:50.406Z,4.60
2022-09-09T13:46:40.178Z,2.80
2022-09-09T13:49:11.254Z,7.80
2022-09-09T13:51:48.021Z,4.40
2022-09-09T13:54:21.518Z,4.10
2022-09-09T13:56:50.813Z,7.90
2022-09-09T13:59:22.840Z,5.20
2022-09-09T14:01:53.506Z,4.80
2022-09-09T14:04:30.139Z,3.60
2022-09-09T14:06:58.332Z,2.50
2022-09-09T14:09:26.107Z,2.60
2022-09-09T14:11:54.172Z,4.30
2022-09-09T14:14:22.491Z,5.60
2022-09-09T14:16:50.220Z,4.00
2022-09-09T14:19:20.572Z,5.80
2022-09-09T14:21:48.453Z,3.90
2022-09-09T14:24:16.683Z,3.20
2022-09-09T14:26:44.757Z,5.40
2022-09-09T14:29:13.069Z,3.80
2022-09-09T14:31:40.874Z,2.70
2022-09-09T14:34:08.972Z,2.70
2022-09-09T14:36:55.042Z,3.50
2022-09-09T14:39:49.756Z,2.80
2022-09-09T14:42:24.747Z,4.90
2022-09-09T14:44:54.761Z,2.70
2022-09-09T14:47:23.287Z,2.90
2022-09-09T14:49:51.307Z,5.00
2022-09-09T14:52:19.213Z,4.20
2022-09-09T14:54:47.740Z,3.20
2022-09-09T14:57:15.624Z,2.80
2022-09-09T14:59:51.504Z,5.20
2022-09-09T15:02:23.962Z,4.40
2022-09-09T15:04:56.578Z,4.80
2022-09-09T15:07:25.800Z,9.00
2022-09-09T15:09:54.386Z,8.80
2022-09-09T15:12:26.992Z,7.80
2022-09-09T15:14:57.681Z,3.90
2022-09-09T15:17:27.082Z,4.30
2022-09-09T15:19:56.092Z,2.80
2022-09-09T15:22:25.479Z,4.20
2022-09-09T15:24:53.292Z,6.30
2022-09-09T15:27:24.123Z,5.60
2022-09-09T15:29:52.828Z,13.40
2022-09-09T15:32:20.693Z,4.10
2022-09-09T15:34:49.072Z,3.90
2022-09-09T15:37:17.095Z,4.30
2022-09-09T15:39:45.400Z,4.70
2022-09-09T15:42:14.661Z,5.40
2022-09-09T15:44:45.806Z,6.90
2022-09-09T15:47:46.671Z,6.00
2022-09-09T15:50:14.818Z,3.80
2022-09-09T15:52:44.024Z,5.00
2022-09-09T15:55:12.114Z,4.50
2022-09-09T15:57:42.869Z,3.50
2022-09-09T16:00:51.024Z,4.10
2022-09-09T16:03:24.043Z,7.00
2022-09-09T16:05:53.384Z,4.50
2022-09-09T16:08:21.728Z,4.20
2022-09-09T16:10:50.075Z,5.20
2022-09-09T16:13:18.441Z,3.70
2022-09-09T16:15:48.862Z,8.00
2022-09-09T16:18:17.301Z,4.30
2022-09-09T16:20:54.959Z,3.10
2022-09-09T16:23:22.949Z,4.20
2022-09-09T16:26:05.051Z,8.40
2022-09-09T16:28:33.630Z,11.50
2022-09-09T16:31:07.495Z,4.40
2022-09-09T16:33:35.902Z,5.50
2022-09-09T16:36:16.410Z,5.90
2022-09-09T16:38:44.847Z,6.20
2022-09-09T16:41:15.082Z,5.00
2022-09-09T16:43:43.036Z,7.20
2022-09-09T16:46:17.723Z,5.60
2022-09-09T16:48:47.063Z,12.30
2022-09-09T16:51:28.329Z,4.60
2022-09-09T16:53:59.129Z,5.40
2022-09-09T16:56:29.806Z,5.40
2022-09-09T16:59:00.654Z,10.10
2022-09-09T17:01:38.269Z,6.30
2022-09-09T17:04:10.075Z,7.20
2022-09-09T17:06:39.311Z,5.50
2022-09-09T17:09:11.778Z,4.60
2022-09-09T17:11:59.953Z,6.10
2022-09-09T17:14:28.003Z,4.80
2022-09-09T17:16:55.982Z,8.80
2022-09-09T17:19:24.269Z,5.30
2022-09-09T17:24:41.597Z,9.20
2022-09-09T17:27:10.033Z,8.90
2022-09-09T17:29:40.149Z,11.00
2022-09-09T17:32:43.958Z,7.40
2022-09-09T17:35:33.898Z,7.10
2022-09-09T17:38:12.792Z,4.80
2022-09-09T17:40:44.269Z,6.90
2022-09-09T17:43:24.268Z,9.20
2022-09-09T17:45:56.669Z,7.30
2022-09-09T17:48:25.379Z,9.60
2022-09-09T17:51:08.392Z,8.00
2022-09-09T17:54:01.276Z,9.10
2022-09-09T17:56:42.212Z,8.30
2022-09-09T17:59:15.010Z,11.00
2022-09-09T18:01:49.644Z,9.80
2022-09-09T18:04:23.749Z,11.90
2022-09-09T18:06:56.038Z,19.10
2022-09-09T18:09:27.252Z,11.80
2022-09-09T18:11:58.050Z,14.90
2022-09-09T18:14:31.960Z,18.00
2022-09-09T18:17:01.994Z,13.90
2022-09-09T18:19:33.017Z,16.50
2022-09-09T18:22:12.292Z,14.40
2022-09-09T18:24:41.642Z,18.40
2022-09-09T18:27:10.113Z,19.90
2022-09-09T18:29:38.472Z,20.90
2022-09-09T18:32:08.424Z,31.70
2022-09-09T18:34:37.337Z,32.10
2022-09-09T18:37:05.556Z,34.80
2022-09-09T18:39:33.742Z,27.90
2022-09-09T18:42:02.940Z,26.50
2022-09-09T18:44:34.881Z,13.10
2022-09-09T18:47:03.965Z,9.80
2022-09-09T18:49:33.429Z,13.70
2022-09-09T18:52:16.126Z,27.70
2022-09-09T18:54:51.146Z,36.80
2022-09-09T18:57:22.116Z,40.70
2022-09-09T18:59:54.746Z,35.10
2022-09-09T19:02:23.297Z,26.40
2022-09-09T19:04:51.563Z,25.10
2022-09-09T19:07:23.004Z,20.70
2022-09-09T19:09:51.568Z,19.30
2022-09-09T19:12:20.064Z,21.50
2022-09-09T19:14:50.241Z,20.90
2022-09-09T19:17:18.310Z,20.20
2022-09-09T19:19:46.477Z,29.30
2022-09-09T19:22:14.599Z,33.10
2022-09-09T19:24:47.292Z,32.20
2022-09-09T19:27:17.155Z,31.40
2022-09-09T19:29:59.466Z,28.60
2022-09-09T19:32:53.290Z,35.40
2022-09-09T19:35:20.038Z,37.40
2022-09-09T19:37:50.744Z,36.00
2022-09-09T19:40:22.267Z,35.30
2022-09-09T19:42:57.319Z,38.50
2022-09-09T19:45:33.095Z,38.80
2022-09-09T19:48:07.393Z,39.50
2022-09-09T19:50:46.612Z,42.90
2022-09-09T19:53:18.568Z,39.20
2022-09-09T19:55:52.969Z,42.40
2022-09-09T19:58:24.973Z,36.40
2022-09-09T20:01:19.092Z,29.50
2022-09-09T20:03:54.764Z,33.40
2022-09-09T20:06:29.482Z,31.90
2022-09-09T20:09:04.210Z,35.40
2022-09-09T20:11:35.903Z,38.20
2022-09-09T20:14:07.012Z,38.10
2022-09-09T20:16:40.530Z,41.60
2022-09-09T20:19:11.959Z,38.70
2022-09-09T20:21:47.876Z,43.50
2022-09-09T20:24:19.597Z,38.80
2022-09-09T20:26:49.094Z,35.90
2022-09-09T20:29:19.939Z,39.70
2022-09-09T20:31:54.981Z,32.80
2022-09-09T20:34:25.976Z,38.90
2022-09-09T20:36:57.206Z,33.70
2022-09-09T20:39:26.538Z,24.60
2022-09-09T20:41:54.274Z,18.10
2022-09-09T20:44:24.496Z,16.10
2022-09-09T20:46:57.062Z,17.30
2022-09-09T20:51:54.061Z,24.20
2022-09-09T20:54:25.934Z,30.30
2022-09-09T20:56:55.405Z,36.00
2022-09-09T20:59:25.923Z,36.30
2022-09-09T21:01:55.095Z,31.30
2022-09-09T21:04:23.168Z,34.60
2022-09-09T21:06:51.265Z,26.20
2022-09-09T21:09:20.451Z,26.00
2022-09-09T21:11:48.205Z,20.70
2022-09-09T21:14:16.006Z,16.80
2022-09-09T21:16:43.813Z,16.60
2022-09-09T21:19:11.750Z,18.30
2022-09-09T21:21:39.522Z,17.80
2022-09-09T21:24:07.433Z,17.50
2022-09-09T21:26:44.859Z,13.00
2022-09-09T21:29:38.982Z,10.50
2022-09-09T21:35:14.219Z,9.60
2022-09-09T21:37:48.711Z,8.50
2022-09-09T21:40:26.661Z,12.40
2022-09-09T21:43:01.734Z,11.00
2022-09-09T21:45:34.916Z,10.40
2022-09-09T21:48:45.157Z,10.90
2022-09-09T21:54:31.781Z,10.00
2022-09-09T21:56:59.630Z,13.70
2022-09-09T22:03:13.233Z,9.90
2022-09-09T22:07:00.600Z,9.40
2022-09-09T22:13:24.328Z,8.80
2022-09-09T22:20:52.957Z,8.40
2022-09-09T22:27:31.203Z,6.20
2022-09-09T22:28:02.897Z,6.20
2022-09-09T22:48:44.240Z,7.30
2022-09-09T22:51:22.282Z,11.40
2022-09-09T22:53:53.530Z,6.90
2022-09-09T22:56:24.595Z,9.10
2022-09-09T22:58:57.020Z,8.40
2022-09-09T23:01:27.158Z,8.40
2022-09-09T23:04:01.778Z,8.60
2022-09-09T23:06:30.476Z,8.30
2022-09-09T23:09:01.649Z,12.10
2022-09-09T23:11:33.510Z,8.40
2022-09-09T23:14:05.447Z,7.90
2022-09-09T23:16:39.891Z,10.70
2022-09-09T23:19:10.948Z,7.90
2022-09-09T23:21:40.585Z,9.30
2022-09-09T23:24:12.977Z,8.40
2022-09-09T23:29:14.863Z,7.90
2022-09-09T23:31:44.997Z,5.70
2022-09-09T23:34:13.997Z,6.40
2022-09-09T23:36:42.420Z,6.80
2022-09-09T23:39:12.001Z,7.00
2022-09-09T23:41:40.443Z,8.70
2022-09-09T23:44:08.602Z,6.40
2022-09-09T23:46:39.573Z,6.10
2022-09-09T23:49:09.891Z,4.10
2022-09-09T23:51:38.664Z,8.10
2022-09-09T23:54:06.662Z,5.20
2022-09-09T23:56:40.530Z,6.80
2022-09-09T23:59:08.720Z,6.60
